Federal Oshima — VRVY8 — position and weather

sailwx.info

Track history (hours):
 
Tides and Currents Weather Stations Pressure Air Temp Water Temp Dewpoint Dewpoint Depression Visibility Wind Speed Wind Dir Waves Ship Positions

Federal Oshima

Last reported at 2016-Jun-15 20:10 UTC. Time now 2016-Jun-25 14:19 UTC.
Position N 46°14' W 072°46'.
Warning: this ship's position is 9 days out of date.

Length 200 m; draft 10.5 m.

Type: Cargo ship. MMSI: 477675000.

Date/timePositionNaut miles runAvg speedWind from/ knotsBaromVisibWave heightAir tempDewpointWater temp
2016-Jun-15 20:10N 46°14' W 072°46'712.1
2016-Jun-15 19:33N 46°11' W 072°55'1111.0
2016-Jun-15 18:33N 46°03' W 073°07'0 0.3
2016-Jun-15 17:28N 46°03' W 073°07'0 0.0
2016-Jun-15 16:28N 46°03' W 073°07'0 0.0
2016-Jun-15 15:28N 46°03' W 073°07'0 0.0
2016-Jun-15 14:31N 46°03' W 073°07'0 0.0
2016-Jun-15 13:25N 46°03' W 073°07'0 0.0
2016-Jun-15 12:31N 46°03' W 073°07'0 0.0
2016-Jun-15 11:28N 46°03' W 073°07'0 0.0
2016-Jun-15 10:28N 46°03' W 073°07'0 0.0
2016-Jun-15 09:22N 46°03' W 073°07'0 0.0
2016-Jun-15 08:31N 46°03' W 073°07'0 0.0
2016-Jun-15 07:31N 46°03' W 073°07'0 0.0
2016-Jun-15 06:25N 46°03' W 073°07'0 0.0
2016-Jun-15 05:28N 46°03' W 073°07'0 0.0
2016-Jun-15 04:28N 46°03' W 073°07'0 0.0
2016-Jun-15 03:31N 46°03' W 073°07'0 0.0
2016-Jun-15 02:28N 46°03' W 073°07'0 0.0
2016-Jun-15 01:28N 46°03' W 073°07'0 0.0
2016-Jun-15 00:28N 46°03' W 073°07'0 0.0
2016-Jun-14 23:28N 46°03' W 073°07'0 0.0
2016-Jun-14 22:31N 46°03' W 073°07'0 0.0
2016-Jun-14 21:28N 46°03' W 073°07'0 0.0
2016-Jun-14 20:28N 46°03' W 073°07'0 0.0
2016-Jun-14 19:28N 46°03' W 073°07'0 0.0
2016-Jun-14 18:28N 46°03' W 073°07'0 0.0
2016-Jun-14 17:28N 46°03' W 073°07'0 0.0
2016-Jun-14 16:31N 46°03' W 073°07'0 0.0
2016-Jun-14 15:31N 46°03' W 073°07'0 0.0
2016-Jun-14 14:28N 46°03' W 073°07'0 0.0
2016-Jun-14 13:31N 46°03' W 073°07'0 0.0
2016-Jun-14 12:28N 46°03' W 073°07'0 0.0
2016-Jun-14 11:28N 46°03' W 073°07'0 0.0
2016-Jun-14 10:28N 46°03' W 073°07'0 0.0
2016-Jun-14 09:28N 46°03' W 073°07'0 0.0
2016-Jun-14 08:28N 46°03' W 073°07'0 0.0
2016-Jun-14 07:31N 46°03' W 073°07'0 0.0
2016-Jun-14 04:31N 46°03' W 073°07'1 1.2
2016-Jun-14 03:33N 46°03' W 073°09'1312.7
2016-Jun-14 02:34N 45°51' W 073°16'1413.7
2016-Jun-14 01:34N 45°40' W 073°28'16 4.0
2016-Jun-13 21:29N 45°24' W 073°35'5 5.0
2016-Jun-13 20:34N 45°25' W 073°41'9 8.9
2016-Jun-13 19:33N 45°21' W 073°52'3 3.4
2016-Jun-13 18:33N 45°18' W 073°56'3 2.8
2016-Jun-13 17:33N 45°16' W 073°57'7 6.9
2016-Jun-13 16:32N 45°14' W 074°07'112 7.3
2016-Jun-13 01:13N 44°12' W 076°18'7 8.6
2016-Jun-13 00:27N 44°06' W 076°24'13013.1
2016-Jun-12 14:28N 43°18' W 079°11'5 4.8
2016-Jun-12 13:29N 43°15' W 079°15'0 0.0
2016-Jun-12 12:29N 43°15' W 079°15'0 0.0
2016-Jun-12 11:29N 43°15' W 079°15'0 0.0
2016-Jun-12 10:23N 43°15' W 079°15'0 0.0
2016-Jun-12 09:23N 43°15' W 079°15'0 0.0
2016-Jun-12 08:29N 43°15' W 079°15'0 0.0
2016-Jun-12 07:29N 43°15' W 079°15'2 2.3
2016-Jun-12 06:33N 43°14' W 079°18'  
Track history (hours):
 
Tides and Currents Weather Stations Pressure Air Temp Water Temp Dewpoint Dewpoint Depression Visibility Wind Speed Wind Dir Waves Ship Positions

Federal Oshima

Last reported at 2016-Jun-15 20:10 UTC. Time now 2016-Jun-25 14:19 UTC.
Position N 46°14' W 072°46'.
Warning: this ship's position is 9 days out of date.

Length 200 m; draft 10.5 m.

Type: Cargo ship. MMSI: 477675000.

Date/timePositionNaut miles runAvg speedWind from/ knotsBaromVisibWave heightAir tempDewpointWater temp
2016-Jun-15 20:10N 46°14' W 072°46'712.1
2016-Jun-15 19:33N 46°11' W 072°55'1111.0
2016-Jun-15 18:33N 46°03' W 073°07'0 0.3
2016-Jun-15 17:28N 46°03' W 073°07'0 0.0
2016-Jun-15 16:28N 46°03' W 073°07'0 0.0
2016-Jun-15 15:28N 46°03' W 073°07'0 0.0
2016-Jun-15 14:31N 46°03' W 073°07'0 0.0
2016-Jun-15 13:25N 46°03' W 073°07'0 0.0
2016-Jun-15 12:31N 46°03' W 073°07'0 0.0
2016-Jun-15 11:28N 46°03' W 073°07'0 0.0
2016-Jun-15 10:28N 46°03' W 073°07'0 0.0
2016-Jun-15 09:22N 46°03' W 073°07'0 0.0
2016-Jun-15 08:31N 46°03' W 073°07'0 0.0
2016-Jun-15 07:31N 46°03' W 073°07'0 0.0
2016-Jun-15 06:25N 46°03' W 073°07'0 0.0
2016-Jun-15 05:28N 46°03' W 073°07'0 0.0
2016-Jun-15 04:28N 46°03' W 073°07'0 0.0
2016-Jun-15 03:31N 46°03' W 073°07'0 0.0
2016-Jun-15 02:28N 46°03' W 073°07'0 0.0
2016-Jun-15 01:28N 46°03' W 073°07'0 0.0
2016-Jun-15 00:28N 46°03' W 073°07'0 0.0
2016-Jun-14 23:28N 46°03' W 073°07'0 0.0
2016-Jun-14 22:31N 46°03' W 073°07'0 0.0
2016-Jun-14 21:28N 46°03' W 073°07'0 0.0
2016-Jun-14 20:28N 46°03' W 073°07'0 0.0
2016-Jun-14 19:28N 46°03' W 073°07'0 0.0
2016-Jun-14 18:28N 46°03' W 073°07'0 0.0
2016-Jun-14 17:28N 46°03' W 073°07'0 0.0
2016-Jun-14 16:31N 46°03' W 073°07'0 0.0
2016-Jun-14 15:31N 46°03' W 073°07'0 0.0
2016-Jun-14 14:28N 46°03' W 073°07'0 0.0
2016-Jun-14 13:31N 46°03' W 073°07'0 0.0
2016-Jun-14 12:28N 46°03' W 073°07'0 0.0
2016-Jun-14 11:28N 46°03' W 073°07'0 0.0
2016-Jun-14 10:28N 46°03' W 073°07'0 0.0
2016-Jun-14 09:28N 46°03' W 073°07'0 0.0
2016-Jun-14 08:28N 46°03' W 073°07'0 0.0
2016-Jun-14 07:31N 46°03' W 073°07'0 0.0
2016-Jun-14 04:31N 46°03' W 073°07'1 1.2
2016-Jun-14 03:33N 46°03' W 073°09'1312.7
2016-Jun-14 02:34N 45°51' W 073°16'1413.7
2016-Jun-14 01:34N 45°40' W 073°28'16 4.0
2016-Jun-13 21:29N 45°24' W 073°35'5 5.0
2016-Jun-13 20:34N 45°25' W 073°41'9 8.9
2016-Jun-13 19:33N 45°21' W 073°52'3 3.4
2016-Jun-13 18:33N 45°18' W 073°56'3 2.8
2016-Jun-13 17:33N 45°16' W 073°57'7 6.9
2016-Jun-13 16:32N 45°14' W 074°07'112 7.3
2016-Jun-13 01:13N 44°12' W 076°18'7 8.6
2016-Jun-13 00:27N 44°06' W 076°24'13013.1
2016-Jun-12 14:28N 43°18' W 079°11'5 4.8
2016-Jun-12 13:29N 43°15' W 079°15'0 0.0
2016-Jun-12 12:29N 43°15' W 079°15'0 0.0
2016-Jun-12 11:29N 43°15' W 079°15'0 0.0
2016-Jun-12 10:23N 43°15' W 079°15'0 0.0
2016-Jun-12 09:23N 43°15' W 079°15'0 0.0
2016-Jun-12 08:29N 43°15' W 079°15'0 0.0
2016-Jun-12 07:29N 43°15' W 079°15'2 2.3
2016-Jun-12 06:33N 43°14' W 079°18'  

Dump ship's entire track history